map of NAP home
NAP - Airport
Location
City:  Naples, Campania, Italy
Near (Alt.):Napoli
Name:Naples International Airport
Old (Alt.):Capodichino
ICAO:LIRN
IATA:NAP

Details
Type:Airport (Aerodrome, Airfield)
Use:Public/Civil, Military, International (customs port of entry)
Latitude:4053'10"N (40.886033)
Longitude:1417'27"E (14.290781)
Datum:WGS 1984
Elevation:294 ft (90 m)
Variation:3.36E (WMM2015 magnetic declination)
0.10 annual change
Runways:1
Longest:8622 × 148 ft (2628 × 45 m), paved

Time
Time Zone:UTC+1 (DST+2)
Local Time:

Weather
METAR:LIRN 251520Z 29014KT 9999 BKN040 24/14 Q1013 NOSIG
TAF:LIRN 251100Z 2512/2612 03010KT 9999 SCT030

Related Locations
Nearby:
Farthest:CHT: 11854 mi / 19078 km
Waitangi [Tuuta], CIT, NZ

Find:

   beyond  
but within

Other Information
Maps:
NOTAMs:
Links:
Sources:

  
  • flag of Italy
  • flag of Campania
  • flag of Naples
  

Airport Diagram

Airport diagram for NAP

Larger airport diagram (OBSOLETE) from NGA

Sectional Chart

Flight Planning
at skyvector.com

Satellite Image

Google Maps Satellite view

 

Copyright © 2004-2018 Karl L. Swartz. All rights reserved.
The Great Circle Mapper name and logo are trademarks of the Great Circle Mapper.
All other trademarks mentioned herein belong to their respective owners.
Please see credits for attibutions and further copyright information.

  Follow gcmap on Facebook Follow gcmap on Twitter Follow gcmap on Google+ GCmap on LinkedIn

hCard Microformat

Geo Microformat